Historyczne dane pomiarowe

Dodano dane terminowe – wersja testowa.

Dane z okresu 1951-2019

Wersja bazy: 1.34 [2019-03-16, lista zmian], aktualizacja planowana na 2019-04-15

Dane meteo z obszaru Polski uzyskane na podstawie danych udostępnionych przez Instytut Meteorologii i Gospodarki Wodnej – Państwowy Instytut Badawczy.

 

Wybierz Datę:    

       

TemperaturaWilgotnośćWiatrCiśnienieOpadyŚniegCzas trwania zjawisk
 Stacja t tx tn tng RH VA  wxwx mslp ppp RRR   cm mm wxwxwxwxwxwxwx
1987-08-14 12.9 17.4 8.2 5.5 93.3- 8.0 2.0---- 1.3------------
1987-08-13 13.9 19.2 6.3 3.2 76.8- 4.0 0.7---- 0.0------------
1987-08-12 12.0 16.1 7.0 4.9 88.5- 3.3 1.7---- 0.4------------
1987-08-11 13.4 16.7 11.5 10.5 88.3- 5.3 2.7---- 3.2------------
1987-08-10 14.3 17.7 12.4 11.4 90.8- 8.0 1.3---- 0.7------------
1987-08-09 15.1 20.5 10.1 7.1 82.0- 5.7 0.7---- 9.9------------
1987-08-08 13.5 19.9 5.9 3.4 75.8- 4.3 1.3---- 0.0------------
1987-08-07 12.0 16.2 7.2 5.7 78.8- 5.0 1.3---- 0.4------------
1987-08-06 11.0 12.8 9.7 8.8 93.3- 7.3 3.3---- 3.0------------
1987-08-05 11.1 15.0 8.0 6.2 91.5- 6.7 4.3---- 7.9------------
1987-08-04 12.4 15.1 9.1 6.7 89.8- 4.7 1.7---- 1.2------------
1987-08-03 12.7 16.9 9.2 6.9 82.8- 6.7 2.3---- 7.6------------
1987-08-02 12.0 17.6 8.6 8.0 89.8- 6.3 4.3---- 2.4------------
1987-08-01 14.9 16.7 13.7 12.0 92.8- 7.7 3.3---- 2.1------------
1987-07-31 14.8 18.8 13.0 12.4 87.5- 7.3 2.7---- 0.0------------
1987-07-30 15.7 21.9 10.5 7.5 89.3- 8.0 0.7---- 4.6------------
1987-07-29 13.9 16.9 10.3 8.3 80.0- 5.7 2.7---- 0.0------------
1987-07-28 13.7 16.2 11.3 9.4 85.0- 5.7 2.7---- 0.3------------
1987-07-27 12.0 15.1 8.9 7.7 86.0- 6.7 4.3---- 3.0------------
1987-07-26 12.6 16.9 8.8 7.0 79.8- 3.3 6.3---- 0.0------------
1987-07-25 15.7 20.0 14.5 12.5 85.3- 5.7 3.7---- 0.0------------
1987-07-24 18.5 22.4 14.3 12.5 84.3- 2.7 1.3---- 0.0------------
1987-07-23 19.2 23.4 14.1 13.5 88.3- 6.0 0.3---- 2.7------------
1987-07-22 20.2 23.4 13.0 11.6 87.5- 0.7 0.3---- 0.0------------
1987-07-21 19.3 24.2 13.8 10.6 82.3- 3.0 0.0---- 0.0------------
1987-07-20 17.7 22.2 13.8 13.4 86.0- 5.3 1.3---- 0.1------------
1987-07-19 17.4 23.0 16.1 16.0 94.5- 7.0 1.7---- 15.7------------
1987-07-18 20.1 24.1 16.8 15.5 91.3- 5.0 2.0---- 0.0------------
1987-07-17 19.6 25.8 13.8 11.9 78.5- 3.7 7.7---- 3.7------------
1987-07-16 17.5 23.8 11.0 9.2 76.3- 5.0 6.3---- 0.0------------
1987-07-15 16.2 21.9 9.8 7.0 74.3- 1.3 2.3---- 0.0------------
1987-07-14 16.3 24.1 10.1 8.1 75.0- 2.0 0.7---- 0.0------------
1987-07-13 14.7 18.3 11.3 9.2 80.0- 4.3 3.7---- 0.2------------
1987-07-12 16.5 19.2 15.3 14.4 92.8- 5.7 4.3---- 5.5------------
1987-07-11 13.3 16.1 9.4 7.0 96.8- 8.0 1.3---- 15.6------------
1987-07-10 13.5 16.3 8.5 7.3 78.8- 2.7 3.7---- 1.4------------
1987-07-09 16.2 20.4 13.9 13.4 74.8- 4.7 1.0---- 0.0------------
1987-07-08 20.8 28.9 13.8 10.9 71.3- 5.0 0.7---- 2.2------------
1987-07-07 20.4 27.1 12.9 8.7 63.8- 0.7 0.7---- 0.0------------
1987-07-06 18.8 26.1 9.7 5.9 63.0- 0.0 1.0---- 0.0------------
1987-07-05 15.6 23.0 8.4 6.3 72.0- 3.7 1.7---- 0.0------------
1987-07-04 16.5 22.0 10.3 8.2 69.3- 4.0 2.7---- 0.0------------
1987-07-03 17.1 22.4 8.5 7.2 66.8- 1.7 0.7---- 0.0------------
1987-07-02 17.1 22.6 10.8 9.5 71.8- 1.0 2.0---- 0.0------------
1987-07-01 23.0 29.0 19.0 16.9 84.8- 4.7 3.0---- 0.1------------
1987-06-30 24.2 29.7 19.6 16.2 80.5- 4.3 1.7---- 0.0------------
1987-06-29 18.0 25.4 11.4 7.8 89.0- 8.0 0.7---- 0.0------------
1987-06-28 16.7 20.3 14.7 13.0 85.0- 4.7 0.7---- 0.2------------
1987-06-27 17.1 20.9 8.9 11.5 75.5- 2.7 1.0---- 0.2------------
1987-06-26 15.9 20.2 10.0 7.7 78.0- 4.3 2.3---- 1.8------------
1987-06-25 13.0 15.6 10.6 10.2 85.0- 4.0 1.7---- 0.0------------
1987-06-24 14.3 16.9 11.9 10.2 81.8- 6.0 1.0---- 6.9------------
1987-06-23 15.3 19.0 12.0 10.6 83.0- 5.0 0.3---- 1.0------------
1987-06-22 14.9 17.1 13.0 11.9 89.8- 6.7 3.0---- 0.6------------
1987-06-21 16.2 21.8 13.2 10.3 78.0- 4.3 1.7---- 7.7------------
1987-06-20 15.1 21.1 8.9 6.5 76.8- 2.3 2.3---- 0.0------------
1987-06-19 12.2 15.2 8.7 7.0 77.8- 5.7 2.0---- 0.0------------
1987-06-18 10.1 12.7 7.0 5.1 81.0- 4.7 5.0---- 3.4------------
1987-06-17 11.7 13.9 9.7 9.2 73.5- 3.7 3.0---- 0.0------------
1987-06-16 11.3 18.8 8.1 7.9 94.8- 8.0 8.7---- 0.0------------
489.6 ms

 

Źródłem pochodzenia danych jest Instytut Meteorologii i Gospodarki Wodnej – Państwowy Instytut Badawczy. Dane Instytutu Meteorologii i Gospodarki Wodnej – Państwowego Instytutu Badawczego zostały przetworzone.

Dane źródłowe można odnaleźć na stronie https://dane.imgw.pl